Time;durP1;ratioP1;P1;durP2;ratioP2;P2;SDS_P1;SDS_P2;PMS_P1;PMS_P2;Temp;Humidity;BMP_temperature;BMP_pressure;BME280_temperature;BME280_humidity;BME280_pressure;Samples;Min_cycle;Max_cycle;Signal;HPM_P1;HPM_P2
2023/01/16 00:01:54;;;;;;;;;;;;;;;;;;5065686;28;19917;-60
2023/01/16 00:04:20;;;;;;;;;;;;;;;;;;5066365;28;20369;-59
2023/01/16 00:06:46;;;;;;;;;;;;;;;;;;5058013;28;19993;-60
2023/01/16 00:09:12;;;;;;;;;;;;;;;;;;5071886;28;20011;-60
2023/01/16 00:11:38;;;;;;;;;;;;;;;;;;5069062;28;19997;-59
2023/01/16 00:14:04;;;;;;;;;;;;;;;;;;5059535;28;19923;-60
2023/01/16 00:16:30;;;;;;;;;;;;;;;;;;5060435;28;19924;-60
2023/01/16 00:18:56;;;;;;;;;;;;;;;;;;5065054;28;19919;-60
2023/01/16 00:21:25;;;;;;;;;;;;;;;;;;5066470;28;19913;-62
2023/01/16 00:23:51;;;;;;;;;;;;;;;;;;5072110;28;20269;-62
2023/01/16 00:26:17;;;;;;;;;;;;;;;;;;5072300;28;20015;-62
2023/01/16 00:28:43;;;;;;;;;;;;;;;;;;5072060;28;20003;-62
2023/01/16 00:31:09;;;;;;;;;;;;;;;;;;5072440;28;19916;-60
2023/01/16 00:33:35;;;;;;;;;;;;;;;;;;5067929;28;19919;-60
2023/01/16 00:36:01;;;;;;;;;;;;;;;;;;5065586;28;19913;-60
2023/01/16 00:38:27;;;;;;;;;;;;;;;;;;5059716;28;20011;-60
2023/01/16 00:40:53;;;;;;;;;;;;;;;;;;5070321;28;20047;-59
2023/01/16 00:43:19;;;;;;;;;;;;;;;;;;5069762;28;20020;-60
2023/01/16 00:45:45;;;;;;;;;;;;;;;;;;5065630;28;20342;-60
2023/01/16 00:48:11;;;;;;;;;;;;;;;;;;5065334;28;19966;-59
2023/01/16 00:50:37;;;;;;;;;;;;;;;;;;5059781;28;19963;-60
2023/01/16 00:53:03;;;;;;;;;;;;;;;;;;5051742;28;19913;-60
2023/01/16 00:55:28;;;;;;;;;;;;;;;;;;5052468;28;19913;-60
2023/01/16 00:57:54;;;;;;;;;;;;;;;;;;5069899;28;19912;-60
2023/01/16 01:00:21;;;;;;;;;;;;;;;;;;5069015;28;19967;-60
2023/01/16 01:02:47;;;;;;;;;;;;;;;;;;5052905;28;19962;-60
2023/01/16 01:05:13;;;;;;;;;;;;;;;;;;5051675;28;19916;-60
2023/01/16 01:07:39;;;;;;;;;;;;;;;;;;5052824;28;19919;-60
2023/01/16 01:10:05;;;;;;;;;;;;;;;;;;5067690;28;20003;-60
2023/01/16 01:12:31;;;;;;;;;;;;;;;;;;5071419;28;19983;-60
2023/01/16 01:14:57;;;;;;;;;;;;;;;;;;5054768;28;20401;-60
2023/01/16 01:17:22;;;;;;;;;;;;;;;;;;5052405;28;20007;-60
2023/01/16 01:19:48;;;;;;;;;;;;;;;;;;5054434;28;19947;-58
2023/01/16 01:22:15;;;;;;;;;;;;;;;;;;5071183;28;19963;-60
2023/01/16 01:24:41;;;;;;;;;;;;;;;;;;5070040;28;19912;-60
2023/01/16 01:27:07;;;;;;;;;;;;;;;;;;5070337;28;19917;-59
2023/01/16 01:29:33;;;;;;;;;;;;;;;;;;5055638;28;19912;-60
2023/01/16 01:32:00;;;;;;;;;;;;;;;;;;5065527;28;19913;-60
2023/01/16 01:34:26;;;;;;;;;;;;;;;;;;5058613;28;20050;-60
2023/01/16 01:36:52;;;;;;;;;;;;;;;;;;5071251;28;19982;-60
2023/01/16 01:39:18;;;;;;;;;;;;;;;;;;5069974;28;20393;-60
2023/01/16 01:41:44;;;;;;;;;;;;;;;;;;5070901;28;20021;-60
2023/01/16 01:44:09;;;;;;;;;;;;;;;;;;5058741;28;19964;-60
2023/01/16 01:46:35;;;;;;;;;;;;;;;;;;5063709;28;19913;-60
2023/01/16 01:49:01;;;;;;;;;;;;;;;;;;5059015;28;19924;-60
2023/01/16 01:51:27;;;;;;;;;;;;;;;;;;5068289;28;19912;-60
2023/01/16 01:53:53;;;;;;;;;;;;;;;;;;5064676;28;19952;-60
2023/01/16 01:56:19;;;;;;;;;;;;;;;;;;5054988;28;19908;-60
2023/01/16 01:58:45;;;;;;;;;;;;;;;;;;5063478;28;19912;-61
2023/01/16 02:01:11;;;;;;;;;;;;;;;;;;5065148;28;20400;-61
2023/01/16 02:03:37;;;;;;;;;;;;;;;;;;5064543;28;20370;-60
2023/01/16 02:06:03;;;;;;;;;;;;;;;;;;5068474;28;19913;-60
2023/01/16 02:08:29;;;;;;;;;;;;;;;;;;5074558;28;19909;-61
2023/01/16 02:10:54;;;;;;;;;;;;;;;;;;5074192;28;19995;-61
2023/01/16 02:13:20;;;;;;;;;;;;;;;;;;5060842;28;19959;-61
2023/01/16 02:21:15;;;;;;;;;;;;;;;;;;5055701;28;20434;-60
2023/01/16 02:23:41;;;;;;;;;;;;;;;;;;5070539;28;19917;-61
2023/01/16 02:26:07;;;;;;;;;;;;;;;;;;5072156;28;19917;-60
2023/01/16 02:28:33;;;;;;;;;;;;;;;;;;5067325;28;19912;-60
2023/01/16 02:30:59;;;;;;;;;;;;;;;;;;5058710;28;19912;-60
2023/01/16 02:33:25;;;;;;;;;;;;;;;;;;5060055;28;19982;-60
2023/01/16 02:35:51;;;;;;;;;;;;;;;;;;5067428;28;19913;-60
2023/01/16 02:38:17;;;;;;;;;;;;;;;;;;5052963;28;19919;-60
2023/01/16 02:40:44;;;;;;;;;;;;;;;;;;5054162;28;19912;-60
2023/01/16 02:43:10;;;;;;;;;;;;;;;;;;5087649;22;19924;-59
2023/01/16 02:45:35;;;;;;;;;;;;;;;;;;5093563;28;20287;-57
2023/01/16 02:48:01;;;;;;;;;;;;;;;;;;5094012;28;20287;-58
2023/01/16 02:50:27;;;;;;;;;;;;;;;;;;5092686;28;20341;-55
2023/01/16 02:52:53;;;;;;;;;;;;;;;;;;5090713;28;19909;-57
2023/01/16 02:55:20;;;;;;;;;;;;;;;;;;5073853;28;19908;-58
2023/01/16 02:57:46;;;;;;;;;;;;;;;;;;5073903;28;19970;-59
2023/01/16 03:00:12;;;;;;;;;;;;;;;;;;5073603;28;19912;-58
2023/01/16 03:02:38;;;;;;;;;;;;;;;;;;5073488;28;20352;-58
2023/01/16 03:05:04;;;;;;;;;;;;;;;;;;5073738;28;19995;-58
2023/01/16 03:07:30;;;;;;;;;;;;;;;;;;5059328;28;19940;-58
2023/01/16 03:09:56;;;;;;;;;;;;;;;;;;5071672;28;20334;-58
2023/01/16 03:12:22;;;;;;;;;;;;;;;;;;5072241;28;19908;-59
2023/01/16 03:14:48;;;;;;;;;;;;;;;;;;5073417;28;19953;-58
2023/01/16 03:17:14;;;;;;;;;;;;;;;;;;5073490;28;20049;-58
2023/01/16 03:19:40;;;;;;;;;;;;;;;;;;5073330;28;19947;-58
2023/01/16 03:22:06;;;;;;;;;;;;;;;;;;5072551;28;19917;-57
2023/01/16 03:24:31;;;;;;;;;;;;;;;;;;5072736;28;19912;-57
2023/01/16 03:26:57;;;;;;;;;;;;;;;;;;5072798;28;19913;-59
2023/01/16 03:29:23;;;;;;;;;;;;;;;;;;5071427;28;19944;-57
2023/01/16 03:31:49;;;;;;;;;;;;;;;;;;5072062;28;20295;-57
2023/01/16 03:34:17;;;;;;;;;;;;;;;;;;5072632;28;20395;-56
2023/01/16 03:36:43;;;;;;;;;;;;;;;;;;5073073;28;19958;-57
2023/01/16 03:39:09;;;;;;;;;;;;;;;;;;5072763;28;20561;-57
2023/01/16 03:41:35;;;;;;;;;;;;;;;;;;5072762;28;19963;-57
2023/01/16 03:44:01;;;;;;;;;;;;;;;;;;5072352;28;19920;-57
2023/01/16 03:46:27;;;;;;;;;;;;;;;;;;5072858;28;20273;-59
2023/01/16 03:48:53;;;;;;;;;;;;;;;;;;5070979;28;19955;-58
2023/01/16 03:51:19;;;;;;;;;;;;;;;;;;5071772;28;20407;-57
2023/01/16 03:53:45;;;;;;;;;;;;;;;;;;5072031;28;19913;-55
2023/01/16 03:56:11;;;;;;;;;;;;;;;;;;5072468;28;19912;-58
2023/01/16 03:58:37;;;;;;;;;;;;;;;;;;5072422;28;20010;-55
2023/01/16 04:01:03;;;;;;;;;;;;;;;;;;5064645;28;19921;-57
2023/01/16 04:03:29;;;;;;;;;;;;;;;;;;5058363;28;19970;-57
2023/01/16 04:05:54;;;;;;;;;;;;;;;;;;5072156;28;19912;-58
2023/01/16 04:08:20;;;;;;;;;;;;;;;;;;5071972;28;19935;-57
2023/01/16 04:10:46;;;;;;;;;;;;;;;;;;5072472;28;19908;-57
2023/01/16 04:13:12;;;;;;;;;;;;;;;;;;5072120;28;19939;-57
2023/01/16 04:15:38;;;;;;;;;;;;;;;;;;5067709;28;19937;-56
2023/01/16 04:18:04;;;;;;;;;;;;;;;;;;5072299;28;20368;-58
2023/01/16 04:20:30;;;;;;;;;;;;;;;;;;5072362;28;19913;-55
2023/01/16 04:22:56;;;;;;;;;;;;;;;;;;5055673;28;20373;-58
2023/01/16 04:25:22;;;;;;;;;;;;;;;;;;5072291;28;19953;-58
2023/01/16 04:27:48;;;;;;;;;;;;;;;;;;5071849;28;19916;-57
2023/01/16 04:30:15;;;;;;;;;;;;;;;;;;5071632;28;19999;-58
2023/01/16 04:32:41;;;;;;;;;;;;;;;;;;5071989;28;19953;-58
2023/01/16 04:35:07;;;;;;;;;;;;;;;;;;5071663;28;19962;-58
2023/01/16 04:37:33;;;;;;;;;;;;;;;;;;5071001;28;19970;-58
2023/01/16 04:39:59;;;;;;;;;;;;;;;;;;5071965;28;19993;-58
2023/01/16 04:42:25;;;;;;;;;;;;;;;;;;5071988;28;19916;-55
2023/01/16 04:44:51;;;;;;;;;;;;;;;;;;5071900;28;20399;-57
2023/01/16 04:47:17;;;;;;;;;;;;;;;;;;5071881;28;19913;-57
2023/01/16 04:49:43;;;;;;;;;;;;;;;;;;5071147;28;19923;-58
2023/01/16 04:52:08;;;;;;;;;;;;;;;;;;5071797;28;19913;-57
2023/01/16 04:54:34;;;;;;;;;;;;;;;;;;5071948;28;19930;-57
2023/01/16 04:57:01;;;;;;;;;;;;;;;;;;5071937;28;20447;-56
2023/01/16 04:59:27;;;;;;;;;;;;;;;;;;5071820;28;19908;-57
2023/01/16 05:01:52;;;;;;;;;;;;;;;;;;5071562;28;19941;-55
2023/01/16 05:04:19;;;;;;;;;;;;;;;;;;5071856;28;19908;-56
2023/01/16 05:06:45;;;;;;;;;;;;;;;;;;5071827;28;19931;-58
2023/01/16 05:09:11;;;;;;;;;;;;;;;;;;5071586;28;20400;-56
2023/01/16 05:11:37;;;;;;;;;;;;;;;;;;5071754;28;19916;-58
2023/01/16 05:14:07;;;;;;;;;;;;;;;;;;5071773;28;19999;-57
2023/01/16 05:16:33;;;;;;;;;;;;;;;;;;5071853;28;20007;-58
2023/01/16 05:18:59;;;;;;;;;;;;;;;;;;5071700;28;19951;-56
2023/01/16 05:21:25;;;;;;;;;;;;;;;;;;5071572;28;19936;-57
2023/01/16 05:23:51;;;;;;;;;;;;;;;;;;5071570;28;19962;-58
2023/01/16 05:26:17;;;;;;;;;;;;;;;;;;5072657;28;19912;-56
2023/01/16 05:28:43;;;;;;;;;;;;;;;;;;5075379;28;20347;-57
2023/01/16 05:31:09;;;;;;;;;;;;;;;;;;5075551;28;20357;-58
2023/01/16 05:33:35;;;;;;;;;;;;;;;;;;5074814;28;19955;-58
2023/01/16 05:36:01;;;;;;;;;;;;;;;;;;5073877;28;19967;-55
2023/01/16 05:38:27;;;;;;;;;;;;;;;;;;5077357;28;19920;-57
2023/01/16 05:40:53;;;;;;;;;;;;;;;;;;5077642;28;19927;-58
2023/01/16 05:43:19;;;;;;;;;;;;;;;;;;5074963;28;19917;-58
2023/01/16 05:45:45;;;;;;;;;;;;;;;;;;5075132;28;19961;-55
2023/01/16 05:48:11;;;;;;;;;;;;;;;;;;5075025;28;19908;-57
2023/01/16 05:50:37;;;;;;;;;;;;;;;;;;5075031;28;20375;-58
2023/01/16 05:53:03;;;;;;;;;;;;;;;;;;5074941;28;20074;-56
2023/01/16 05:55:29;;;;;;;;;;;;;;;;;;5073815;28;20372;-58
2023/01/16 05:57:55;;;;;;;;;;;;;;;;;;5074902;28;19931;-56
2023/01/16 06:00:21;;;;;;;;;;;;;;;;;;5074729;28;19915;-57
2023/01/16 06:02:46;;;;;;;;;;;;;;;;;;5074784;28;20011;-55
2023/01/16 06:05:12;;;;;;;;;;;;;;;;;;5074714;28;19919;-57
2023/01/16 06:07:38;;;;;;;;;;;;;;;;;;5074657;28;20284;-58
2023/01/16 06:10:04;;;;;;;;;;;;;;;;;;5074616;28;19913;-57
2023/01/16 06:12:31;;;;;;;;;;;;;;;;;;5074635;28;19908;-58
2023/01/16 06:14:57;;;;;;;;;;;;;;;;;;5074559;28;20323;-55
2023/01/16 06:17:23;;;;;;;;;;;;;;;;;;5074552;28;19915;-58
2023/01/16 06:19:49;;;;;;;;;;;;;;;;;;5074318;28;19958;-58
2023/01/16 06:22:15;;;;;;;;;;;;;;;;;;5074389;28;19959;-57
2023/01/16 06:24:41;;;;;;;;;;;;;;;;;;5074410;28;19936;-56
2023/01/16 06:27:07;;;;;;;;;;;;;;;;;;5074504;28;19940;-57
2023/01/16 06:29:33;;;;;;;;;;;;;;;;;;5074299;28;20276;-58
2023/01/16 06:31:59;;;;;;;;;;;;;;;;;;5074211;28;20376;-57
2023/01/16 06:34:25;;;;;;;;;;;;;;;;;;5074156;28;19915;-56
2023/01/16 06:36:51;;;;;;;;;;;;;;;;;;5073688;28;19904;-57
2023/01/16 06:39:17;;;;;;;;;;;;;;;;;;5074032;28;20276;-56
2023/01/16 06:41:43;;;;;;;;;;;;;;;;;;5074091;28;19924;-55
2023/01/16 06:44:09;;;;;;;;;;;;;;;;;;5074256;28;19916;-55
2023/01/16 06:46:35;;;;;;;;;;;;;;;;;;5074141;28;19920;-55
2023/01/16 06:49:01;;;;;;;;;;;;;;;;;;5072415;28;19936;-53
2023/01/16 06:51:27;;;;;;;;;;;;;;;;;;5072715;28;20278;-59
2023/01/16 06:53:52;;;;;;;;;;;;;;;;;;5073822;28;20398;-58
2023/01/16 06:56:19;;;;;;;;;;;;;;;;;;5073961;28;20440;-57
2023/01/16 06:58:44;;;;;;;;;;;;;;;;;;5073734;28;19951;-58
2023/01/16 07:01:10;;;;;;;;;;;;;;;;;;5074176;28;19916;-59
2023/01/16 07:03:36;;;;;;;;;;;;;;;;;;5073539;28;19973;-53
2023/01/16 07:06:02;;;;;;;;;;;;;;;;;;5073589;28;19913;-52
2023/01/16 07:08:28;;;;;;;;;;;;;;;;;;5073615;28;19962;-53
2023/01/16 07:10:54;;;;;;;;;;;;;;;;;;5073618;28;19912;-59
2023/01/16 07:13:26;;;;;;;;;;;;;;;;;;5072275;28;19908;-58
2023/01/16 07:24:19;;;;;;;;;;;;;;;;;;5073207;28;19916;-57
2023/01/16 07:26:45;;;;;;;;;;;;;;;;;;5071969;28;19913;-57
2023/01/16 07:29:11;;;;;;;;;;;;;;;;;;5073036;28;19908;-59
2023/01/16 07:31:37;;;;;;;;;;;;;;;;;;5073197;28;20041;-57
2023/01/16 07:34:03;;;;;;;;;;;;;;;;;;5073078;28;19916;-58
2023/01/16 07:36:29;;;;;;;;;;;;;;;;;;5073134;28;19908;-63
2023/01/16 07:44:44;;;;;;;;;;;;;;;;;;5072615;28;20026;-62
2023/01/16 07:47:12;;;;;;;;;;;;;;;;;;5072822;28;19912;-59
2023/01/16 07:49:38;;;;;;;;;;;;;;;;;;5071785;28;20003;-58
2023/01/16 07:52:04;;;;;;;;;;;;;;;;;;5072867;28;20350;-57
2023/01/16 07:54:30;;;;;;;;;;;;;;;;;;5072675;28;19915;-58
2023/01/16 07:56:56;;;;;;;;;;;;;;;;;;5072829;28;19909;-56
2023/01/16 07:59:22;;;;;;;;;;;;;;;;;;5072525;28;19909;-56
2023/01/16 08:01:50;;;;;;;;;;;;;;;;;;5072455;28;19927;-58
2023/01/16 08:04:16;;;;;;;;;;;;;;;;;;5072458;28;20003;-58
2023/01/16 08:06:44;;;;;;;;;;;;;;;;;;5072582;28;20392;-59
2023/01/16 08:09:10;;;;;;;;;;;;;;;;;;5072682;28;19917;-58
2023/01/16 08:11:36;;;;;;;;;;;;;;;;;;5072473;28;20284;-58
2023/01/16 08:14:02;;;;;;;;;;;;;;;;;;5072334;28;20289;-59
2023/01/16 08:16:28;;;;;;;;;;;;;;;;;;5072357;28;19916;-58
2023/01/16 08:18:54;;;;;;;;;;;;;;;;;;5070840;28;19970;-58
2023/01/16 08:21:20;;;;;;;;;;;;;;;;;;5072407;28;20258;-58
2023/01/16 08:23:46;;;;;;;;;;;;;;;;;;5072174;28;19966;-59
2023/01/16 08:26:12;;;;;;;;;;;;;;;;;;5072364;28;19909;-58
2023/01/16 08:28:38;;;;;;;;;;;;;;;;;;5070833;28;19908;-56
2023/01/16 08:31:07;;;;;;;;;;;;;;;;;;5072248;28;20530;-57
2023/01/16 08:33:33;;;;;;;;;;;;;;;;;;5072089;28;19912;-58
2023/01/16 08:35:59;;;;;;;;;;;;;;;;;;5072420;28;19915;-58
2023/01/16 08:38:25;;;;;;;;;;;;;;;;;;5072047;28;19940;-56
2023/01/16 08:40:50;;;;;;;;;;;;;;;;;;5072078;28;20399;-58
2023/01/16 08:51:31;;;;;;;;;;;;;;;;;;5072165;28;19954;-58
2023/01/16 08:53:58;;;;;;;;;;;;;;;;;;5071814;28;19912;-58
2023/01/16 08:56:23;;;;;;;;;;;;;;;;;;5071914;28;19912;-58
2023/01/16 08:58:49;;;;;;;;;;;;;;;;;;5071813;28;19909;-58
2023/01/16 09:01:15;;;;;;;;;;;;;;;;;;5074516;28;19999;-58
2023/01/16 09:03:41;;;;;;;;;;;;;;;;;;5075962;28;19912;-58
2023/01/16 09:06:07;;;;;;;;;;;;;;;;;;5074743;28;19915;-59
2023/01/16 09:08:33;;;;;;;;;;;;;;;;;;5074442;28;19912;-59
2023/01/16 09:13:50;;;;;;;;;;;;;;;;;;5075810;28;19989;-57
2023/01/16 09:16:15;;;;;;;;;;;;;;;;;;5075687;28;19952;-59
2023/01/16 09:18:42;;;;;;;;;;;;;;;;;;5075386;28;19943;-57
2023/01/16 09:21:07;;;;;;;;;;;;;;;;;;5075582;28;19909;-52
2023/01/16 09:23:33;;;;;;;;;;;;;;;;;;5074140;28;19923;-52
2023/01/16 09:25:59;;;;;;;;;;;;;;;;;;5075596;28;19909;-53
2023/01/16 09:28:25;;;;;;;;;;;;;;;;;;5075488;28;19961;-54
2023/01/16 09:30:51;;;;;;;;;;;;;;;;;;5075580;28;19908;-55
2023/01/16 09:33:17;;;;;;;;;;;;;;;;;;5075405;28;20317;-52
2023/01/16 09:35:43;;;;;;;;;;;;;;;;;;5075449;28;19913;-56
2023/01/16 09:38:09;;;;;;;;;;;;;;;;;;5075187;28;19915;-55
2023/01/16 09:40:35;;;;;;;;;;;;;;;;;;5075358;28;19909;-54
2023/01/16 09:45:46;;;;;;;;;;;;;;;;;;5075326;28;20007;-55
2023/01/16 09:48:12;;;;;;;;;;;;;;;;;;5075073;28;19944;-55
2023/01/16 09:50:38;;;;;;;;;;;;;;;;;;5075186;28;20296;-55
2023/01/16 09:58:36;;;;;;;;;;;;;;;;;;5074900;28;20015;-55
2023/01/16 10:01:02;;;;;;;;;;;;;;;;;;5074941;28;19915;-51
2023/01/16 10:03:28;;;;;;;;;;;;;;;;;;5075083;28;19999;-53
2023/01/16 10:05:54;;;;;;;;;;;;;;;;;;5075150;28;20358;-52
2023/01/16 10:08:20;;;;;;;;;;;;;;;;;;5074733;28;19915;-53
2023/01/16 10:10:46;;;;;;;;;;;;;;;;;;5074881;28;20003;-53
2023/01/16 10:13:12;;;;;;;;;;;;;;;;;;5073680;28;20011;-54
2023/01/16 10:15:38;;;;;;;;;;;;;;;;;;5074602;28;19909;-52
2023/01/16 10:18:04;;;;;;;;;;;;;;;;;;5073488;28;19962;-52
2023/01/16 10:20:30;;;;;;;;;;;;;;;;;;5074545;28;19908;-55
2023/01/16 10:22:55;;;;;;;;;;;;;;;;;;5074462;28;20299;-52
2023/01/16 10:25:21;;;;;;;;;;;;;;;;;;5074627;28;19908;-54
2023/01/16 10:27:48;;;;;;;;;;;;;;;;;;5074461;28;19915;-52
2023/01/16 10:30:14;;;;;;;;;;;;;;;;;;5074350;28;19912;-52
2023/01/16 10:32:40;;;;;;;;;;;;;;;;;;5074425;28;19909;-55
2023/01/16 10:35:06;;;;;;;;;;;;;;;;;;5074424;28;19978;-52
2023/01/16 10:37:32;;;;;;;;;;;;;;;;;;5074387;28;20294;-52
2023/01/16 10:39:58;;;;;;;;;;;;;;;;;;5074119;28;20373;-52
2023/01/16 10:50:38;;;;;;;;;;;;;;;;;;5074066;28;20058;-56
2023/01/16 10:53:04;;;;;;;;;;;;;;;;;;5073869;28;19973;-54
2023/01/16 10:55:30;;;;;;;;;;;;;;;;;;5074003;28;19962;-55
2023/01/16 10:57:56;;;;;;;;;;;;;;;;;;5073871;28;19916;-57
2023/01/16 11:00:28;;;;;;;;;;;;;;;;;;5073764;28;20400;-56
2023/01/16 11:02:54;;;;;;;;;;;;;;;;;;5073709;28;19920;-57
2023/01/16 11:05:20;;;;;;;;;;;;;;;;;;5073779;28;19909;-57
2023/01/16 11:07:46;;;;;;;;;;;;;;;;;;5072448;28;20360;-57
2023/01/16 11:10:12;;;;;;;;;;;;;;;;;;5073527;28;20006;-59
2023/01/16 11:18:50;;;;;;;;;;;;;;;;;;5073255;28;19958;-57
2023/01/16 11:20:57;;;;;;;;;;;;;;;;;;5065209;28;19913;-57
2023/01/16 11:23:23;;;;;;;;;;;;;;;;;;5073215;28;20032;-57
2023/01/16 11:25:49;;;;;;;;;;;;;;;;;;5073352;28;20365;-57
2023/01/16 11:28:16;;;;;;;;;;;;;;;;;;5072171;28;19999;-57
2023/01/16 11:30:42;;;;;;;;;;;;;;;;;;5071735;28;20246;-57
2023/01/16 11:33:08;;;;;;;;;;;;;;;;;;5072864;28;19920;-57
2023/01/16 11:35:34;;;;;;;;;;;;;;;;;;5072267;28;19908;-56
2023/01/16 11:38:02;;;;;;;;;;;;;;;;;;5073183;28;19958;-56
2023/01/16 11:40:28;;;;;;;;;;;;;;;;;;5072755;28;19919;-57
2023/01/16 11:48:23;;;;;;;;;;;;;;;;;;5072760;28;19919;-57
2023/01/16 11:50:49;;;;;;;;;;;;;;;;;;5071896;28;19913;-54
2023/01/16 11:53:15;;;;;;;;;;;;;;;;;;5072674;28;19939;-55
2023/01/16 11:55:41;;;;;;;;;;;;;;;;;;5072110;28;19913;-57
2023/01/16 11:58:07;;;;;;;;;;;;;;;;;;5071175;28;19934;-57
2023/01/16 12:00:33;;;;;;;;;;;;;;;;;;5071475;28;19950;-57
2023/01/16 12:02:59;;;;;;;;;;;;;;;;;;5072014;28;20006;-56
2023/01/16 12:08:09;;;;;;;;;;;;;;;;;;5070198;28;20280;-57
2023/01/16 12:10:35;;;;;;;;;;;;;;;;;;5072139;28;19913;-57
2023/01/16 12:15:46;;;;;;;;;;;;;;;;;;5070448;28;19924;-56
2023/01/16 12:18:12;;;;;;;;;;;;;;;;;;5071224;28;20324;-56
2023/01/16 12:20:37;;;;;;;;;;;;;;;;;;5070379;28;19967;-53
2023/01/16 12:23:03;;;;;;;;;;;;;;;;;;5071627;28;19916;-56
2023/01/16 12:25:29;;;;;;;;;;;;;;;;;;5069864;28;19912;-56
2023/01/16 12:27:58;;;;;;;;;;;;;;;;;;5071558;28;19917;-56
2023/01/16 12:30:24;;;;;;;;;;;;;;;;;;5062947;28;19935;-57
2023/01/16 12:32:50;;;;;;;;;;;;;;;;;;5052018;28;19913;-55
2023/01/16 12:35:16;;;;;;;;;;;;;;;;;;5065152;28;19912;-53
2023/01/16 12:37:42;;;;;;;;;;;;;;;;;;5071737;28;19965;-54
2023/01/16 12:40:08;;;;;;;;;;;;;;;;;;5070334;28;20007;-56
2023/01/16 12:43:34;;;;;;;;;;;;;;;;;;5071568;28;19923;-57
2023/01/16 12:45:29;;;;;;;;;;;;;;;;;;5058022;28;19916;-54
2023/01/16 12:47:55;;;;;;;;;;;;;;;;;;5070606;28;20472;-55
2023/01/16 12:50:21;;;;;;;;;;;;;;;;;;5071497;28;19908;-55
2023/01/16 12:52:47;;;;;;;;;;;;;;;;;;5071072;28;19913;-55
2023/01/16 12:55:13;;;;;;;;;;;;;;;;;;5071789;28;20007;-54
2023/01/16 12:57:39;;;;;;;;;;;;;;;;;;5071965;28;20484;-55
2023/01/16 13:00:05;;;;;;;;;;;;;;;;;;5071479;28;19912;-55
2023/01/16 13:02:34;;;;;;;;;;;;;;;;;;5071676;28;19920;-53
2023/01/16 13:05:00;;;;;;;;;;;;;;;;;;5070274;28;20290;-56
2023/01/16 13:07:26;;;;;;;;;;;;;;;;;;5070365;28;19919;-53
2023/01/16 13:13:20;;;;;;;;;;;;;;;;;;5071659;28;19908;-56
2023/01/16 13:15:22;;;;;;;;;;;;;;;;;;5071338;28;19931;-57
2023/01/16 13:17:48;;;;;;;;;;;;;;;;;;5071413;28;19912;-56
2023/01/16 13:20:14;;;;;;;;;;;;;;;;;;5071453;28;19995;-53
2023/01/16 13:22:41;;;;;;;;;;;;;;;;;;5070191;28;20442;-56
2023/01/16 13:25:07;;;;;;;;;;;;;;;;;;5071199;28;20008;-56
2023/01/16 13:27:33;;;;;;;;;;;;;;;;;;5071638;28;19991;-56
2023/01/16 13:29:59;;;;;;;;;;;;;;;;;;5071469;28;19997;-54
2023/01/16 13:32:25;;;;;;;;;;;;;;;;;;5071102;28;20008;-54
2023/01/16 13:34:50;;;;;;;;;;;;;;;;;;5070955;28;19967;-56
2023/01/16 13:37:16;;;;;;;;;;;;;;;;;;5071281;28;19913;-54
2023/01/16 13:39:42;;;;;;;;;;;;;;;;;;5070895;28;19958;-53
2023/01/16 13:42:08;;;;;;;;;;;;;;;;;;5071399;28;19917;-55
2023/01/16 13:47:19;;;;;;;;;;;;;;;;;;5072146;28;19975;-54
2023/01/16 13:49:44;;;;;;;;;;;;;;;;;;5074701;28;19923;-55
2023/01/16 13:52:12;;;;;;;;;;;;;;;;;;5074618;28;19919;-54
2023/01/16 13:54:38;;;;;;;;;;;;;;;;;;5074635;28;20431;-53
2023/01/16 13:57:04;;;;;;;;;;;;;;;;;;5075095;28;20229;-54
2023/01/16 13:59:30;;;;;;;;;;;;;;;;;;5074274;28;19949;-53
2023/01/16 14:01:56;;;;;;;;;;;;;;;;;;5074255;28;19913;-53
2023/01/16 14:04:23;;;;;;;;;;;;;;;;;;5074729;28;19908;-54
2023/01/16 14:06:49;;;;;;;;;;;;;;;;;;5074700;28;19932;-56
2023/01/16 14:09:15;;;;;;;;;;;;;;;;;;5074176;28;20365;-54
2023/01/16 14:11:41;;;;;;;;;;;;;;;;;;5076807;28;19986;-53
2023/01/16 14:14:07;;;;;;;;;;;;;;;;;;5074533;28;20046;-56
2023/01/16 14:16:35;;;;;;;;;;;;;;;;;;5073813;28;20007;-56
2023/01/16 14:19:02;;;;;;;;;;;;;;;;;;5074017;28;19944;-57
2023/01/16 14:21:28;;;;;;;;;;;;;;;;;;5074453;28;19912;-55
2023/01/16 14:24:02;;;;;;;;;;;;;;;;;;5074058;28;20365;-56
2023/01/16 14:26:28;;;;;;;;;;;;;;;;;;5054765;28;19913;-57
2023/01/16 14:28:54;;;;;;;;;;;;;;;;;;5056876;28;19932;-54
2023/01/16 14:31:20;;;;;;;;;;;;;;;;;;5073282;28;20274;-55
2023/01/16 14:33:46;;;;;;;;;;;;;;;;;;5074256;28;20375;-55
2023/01/16 14:36:12;;;;;;;;;;;;;;;;;;5073116;28;20008;-56
2023/01/16 14:38:38;;;;;;;;;;;;;;;;;;5072720;28;19959;-57
2023/01/16 14:57:32;;;;;;;;;;;;;;;;;;5073425;28;20007;-56
2023/01/16 14:59:57;;;;;;;;;;;;;;;;;;5072774;28;19952;-53
2023/01/16 15:02:30;;;;;;;;;;;;;;;;;;5072292;28;19924;-55
2023/01/16 15:04:56;;;;;;;;;;;;;;;;;;5073738;28;19909;-55
2023/01/16 15:07:22;;;;;;;;;;;;;;;;;;5072050;28;20335;-55
2023/01/16 15:09:48;;;;;;;;;;;;;;;;;;5073450;28;19920;-52
2023/01/16 15:12:14;;;;;;;;;;;;;;;;;;5073633;28;19912;-53
2023/01/16 15:14:40;;;;;;;;;;;;;;;;;;5071393;28;19935;-53
2023/01/16 15:22:36;;;;;;;;;;;;;;;;;;5072996;28;19924;-56
2023/01/16 15:25:02;;;;;;;;;;;;;;;;;;5073126;28;19912;-54
2023/01/16 15:27:28;;;;;;;;;;;;;;;;;;5073766;28;20050;-54
2023/01/16 15:29:54;;;;;;;;;;;;;;;;;;5058818;28;19995;-53
2023/01/16 15:32:21;;;;;;;;;;;;;;;;;;5077391;28;20408;-53
2023/01/16 15:34:47;;;;;;;;;;;;;;;;;;5069967;28;19919;-55
2023/01/16 15:37:14;;;;;;;;;;;;;;;;;;5073554;28;19995;-55
2023/01/16 15:39:42;;;;;;;;;;;;;;;;;;5071917;28;20428;-57
2023/01/16 15:47:37;;;;;;;;;;;;;;;;;;5073043;28;19919;-53
2023/01/16 15:50:03;;;;;;;;;;;;;;;;;;5071773;28;19912;-53
2023/01/16 15:52:29;;;;;;;;;;;;;;;;;;5072731;28;20323;-56
2023/01/16 15:54:55;;;;;;;;;;;;;;;;;;5072552;28;19908;-55
2023/01/16 15:57:21;;;;;;;;;;;;;;;;;;5070229;28;19915;-54
2023/01/16 15:59:47;;;;;;;;;;;;;;;;;;5072530;28;20004;-53
2023/01/16 16:02:13;;;;;;;;;;;;;;;;;;5070568;28;20023;-55
2023/01/16 16:04:39;;;;;;;;;;;;;;;;;;5071542;28;19913;-55
2023/01/16 16:07:05;;;;;;;;;;;;;;;;;;5071867;28;19916;-54
2023/01/16 16:09:31;;;;;;;;;;;;;;;;;;5071432;28;19916;-54
2023/01/16 16:11:57;;;;;;;;;;;;;;;;;;5071948;28;20361;-54
2023/01/16 16:19:53;;;;;;;;;;;;;;;;;;5070899;28;20383;-53
2023/01/16 16:25:03;;;;;;;;;;;;;;;;;;5072055;28;20052;-54
2023/01/16 16:27:30;;;;;;;;;;;;;;;;;;5071383;28;19917;-53
2023/01/16 16:29:56;;;;;;;;;;;;;;;;;;5072192;28;19908;-54
2023/01/16 16:32:22;;;;;;;;;;;;;;;;;;5072272;28;20363;-53
2023/01/16 16:34:48;;;;;;;;;;;;;;;;;;5071991;28;20202;-53
2023/01/16 16:37:14;;;;;;;;;;;;;;;;;;5072271;28;19912;-56
2023/01/16 16:39:40;;;;;;;;;;;;;;;;;;5072036;28;19908;-54
2023/01/16 16:42:26;;;;;;;;;;;;;;;;;;5072245;28;19982;-53
2023/01/16 16:44:52;;;;;;;;;;;;;;;;;;5071742;28;20365;-55
2023/01/16 16:47:18;;;;;;;;;;;;;;;;;;5072078;28;19908;-55
2023/01/16 16:49:44;;;;;;;;;;;;;;;;;;5071912;28;19909;-57
2023/01/16 16:52:10;;;;;;;;;;;;;;;;;;5072327;28;19909;-57
2023/01/16 16:54:37;;;;;;;;;;;;;;;;;;5071919;28;19909;-54
2023/01/16 16:57:03;;;;;;;;;;;;;;;;;;5071985;28;19999;-53
2023/01/16 16:59:32;;;;;;;;;;;;;;;;;;5070695;28;19908;-56
2023/01/16 17:02:03;;;;;;;;;;;;;;;;;;5069917;28;20278;-55
2023/01/16 17:04:29;;;;;;;;;;;;;;;;;;5071946;28;19908;-54
2023/01/16 17:06:56;;;;;;;;;;;;;;;;;;5071036;28;19966;-53
2023/01/16 17:09:22;;;;;;;;;;;;;;;;;;5068340;28;20324;-56
2023/01/16 17:11:48;;;;;;;;;;;;;;;;;;5071949;28;19952;-55
2023/01/16 17:14:14;;;;;;;;;;;;;;;;;;5071473;28;20380;-53
2023/01/16 17:16:41;;;;;;;;;;;;;;;;;;5071701;28;20004;-55
2023/01/16 17:19:07;;;;;;;;;;;;;;;;;;5070138;28;20442;-54
2023/01/16 17:21:33;;;;;;;;;;;;;;;;;;5070990;28;19912;-53
2023/01/16 17:23:59;;;;;;;;;;;;;;;;;;5072303;28;19942;-53
2023/01/16 17:26:25;;;;;;;;;;;;;;;;;;5069089;28;19964;-56
2023/01/16 17:28:53;;;;;;;;;;;;;;;;;;5073223;28;19920;-53
2023/01/16 17:31:19;;;;;;;;;;;;;;;;;;5070743;28;19956;-54
2023/01/16 17:33:45;;;;;;;;;;;;;;;;;;5066394;28;19967;-54
2023/01/16 17:36:11;;;;;;;;;;;;;;;;;;5067705;28;19919;-53
2023/01/16 17:38:37;;;;;;;;;;;;;;;;;;5068613;28;19912;-54
2023/01/16 17:41:03;;;;;;;;;;;;;;;;;;5068689;28;19916;-53
2023/01/16 17:46:14;;;;;;;;;;;;;;;;;;5071851;28;19962;-53
2023/01/16 17:48:40;;;;;;;;;;;;;;;;;;5068090;28;21790;-52
2023/01/16 17:51:06;;;;;;;;;;;;;;;;;;5067615;28;20011;-53
2023/01/16 17:53:32;;;;;;;;;;;;;;;;;;5069343;28;19913;-52
2023/01/16 17:55:58;;;;;;;;;;;;;;;;;;5068208;28;20015;-55
2023/01/16 17:58:24;;;;;;;;;;;;;;;;;;5070702;28;19912;-52
2023/01/16 18:00:50;;;;;;;;;;;;;;;;;;5064199;28;19951;-53
2023/01/16 18:03:17;;;;;;;;;;;;;;;;;;5060758;28;19975;-53
2023/01/16 18:05:43;;;;;;;;;;;;;;;;;;5063226;28;20266;-55
2023/01/16 18:08:09;;;;;;;;;;;;;;;;;;5059155;28;19916;-54
2023/01/16 18:10:35;;;;;;;;;;;;;;;;;;5069291;28;20369;-55
2023/01/16 18:18:31;;;;;;;;;;;;;;;;;;5065312;28;19919;-55
2023/01/16 18:23:41;;;;;;;;;;;;;;;;;;5066434;28;19923;-55
2023/01/16 18:26:07;;;;;;;;;;;;;;;;;;5060906;28;19913;-52
2023/01/16 18:28:33;;;;;;;;;;;;;;;;;;5063585;28;19913;-52
2023/01/16 18:30:59;;;;;;;;;;;;;;;;;;5070122;28;20294;-53
2023/01/16 18:33:25;;;;;;;;;;;;;;;;;;5066334;28;19919;-53
2023/01/16 18:35:51;;;;;;;;;;;;;;;;;;5068680;28;19913;-53